Time;durP1;ratioP1;P1;durP2;ratioP2;P2;SDS_P1;SDS_P2;PMS_P1;PMS_P2;Temp;Humidity;BMP_temperature;BMP_pressure;BME280_temperature;BME280_humidity;BME280_pressure;Samples;Min_cycle;Max_cycle;Signal;HPM_P1;HPM_P2
2022/10/27 00:01:36;;;;;;;4.13;3.83;;;;;;;-142.65;90.90;50170.78;5115094;28;20211;-69
2022/10/27 00:04:03;;;;;;;14.90;3.20;;;;;;;-142.65;91.32;50168.78;5114907;28;20288;-69
2022/10/27 00:06:29;;;;;;;3.30;3.23;;;;;;;;;;5097168;28;20188;-69
2022/10/27 00:08:55;;;;;;;3.90;3.80;;;;;;;;;;5114842;28;20188;-69
2022/10/27 00:11:22;;;;;;;5.27;3.63;;;;;;;-142.65;91.80;50164.81;5114759;28;20208;-69
2022/10/27 00:13:48;;;;;;;3.53;3.43;;;;;;;;;;5114653;28;20197;-69
2022/10/27 00:16:15;;;;;;;3.37;3.37;;;;;;;-142.65;92.06;50170.78;5114773;28;20182;-69
2022/10/27 00:18:41;;;;;;;7.53;3.53;;;;;;;;;;5114706;28;20189;-68
2022/10/27 00:21:10;;;;;;;3.37;3.33;;;;;;;;;;5115319;28;20205;-69
2022/10/27 00:23:37;;;;;;;3.40;3.27;;;;;;;-142.65;92.54;50170.78;5114719;28;20209;-69
2022/10/27 00:26:05;;;;;;;3.27;3.17;;;;;;;-142.65;92.64;50170.78;5114575;28;20272;-69
2022/10/27 00:28:32;;;;;;;5.53;3.60;;;;;;;-142.65;92.53;50164.81;5114766;28;20185;-69
2022/10/27 00:31:03;;;;;;;4.53;3.57;;;;;;;;;;5114374;28;20219;-69
2022/10/27 00:33:30;;;;;;;3.67;3.37;;;;;;;-142.65;92.63;50172.78;5114402;28;20511;-69
2022/10/27 00:36:03;;;;;;;3.97;3.77;;;;;;;-142.65;92.71;50162.81;5114051;28;20575;-68
2022/10/27 00:38:29;;;;;;;3.90;3.80;;;;;;;-142.65;92.73;50174.75;5114369;28;20183;-68
2022/10/27 00:40:55;;;;;;;3.60;3.50;;;;;;;-142.65;92.75;50164.81;5114210;28;20219;-69
2022/10/27 00:43:30;;;;;;;4.00;3.70;;;;;;;-142.65;92.71;50170.78;5114967;28;20185;-69
2022/10/27 00:46:17;;;;;;;7.50;4.07;;;;;;;;;;5114790;28;20177;-68
2022/10/27 00:48:43;;;;;;;3.73;3.63;;;;;;;-142.65;92.38;50174.75;5114491;28;20173;-68
2022/10/27 00:51:12;;;;;;;4.27;3.93;;;;;;;;;;5114574;28;20729;-68
2022/10/27 00:53:39;;;;;;;3.37;3.30;;;;;;;-142.65;92.13;50178.75;5114090;28;20177;-68
2022/10/27 00:56:05;;;;;;;3.80;3.70;;;;;;;;;;5113998;28;20196;-68
2022/10/27 00:58:32;;;;;;;4.20;3.80;;;;;;;-142.65;91.98;50174.75;5114288;28;20524;-68
2022/10/27 01:01:00;;;;;;;3.30;3.10;;;;;;;-142.65;92.15;50170.78;5113917;28;20200;-69
2022/10/27 01:03:27;;;;;;;3.30;3.20;;;;;;;-142.65;92.23;50162.81;5114166;28;20190;-68
2022/10/27 01:05:55;;;;;;;4.20;3.93;;;;;;;;;;5114198;28;20184;-68
2022/10/27 01:08:23;;;;;;;3.80;3.70;;;;;;;-142.65;92.08;50168.78;5114196;28;20185;-68
2022/10/27 01:10:50;;;;;;;4.83;4.50;;;;;;;-142.65;91.92;50170.78;5114058;28;20254;-68
2022/10/27 01:13:17;;;;;;;7.00;4.80;;;;;;;;;;5113681;28;20224;-68
2022/10/27 01:15:43;;;;;;;3.97;3.87;;;;;;;;;;5114141;28;20525;-68
2022/10/27 01:18:28;;;;;;;5.80;4.83;;;;;;;-142.65;91.57;50168.78;5114038;28;20651;-68
2022/10/27 01:21:19;;;;;;;4.30;4.20;;;;;;;-142.65;91.63;50176.75;5113929;28;20713;-69
2022/10/27 01:23:49;;;;;;;4.50;4.20;;;;;;;-142.65;91.44;50168.78;5113626;28;20208;-69
2022/10/27 01:26:40;;;;;;;6.00;4.33;;;;;;;-142.65;91.53;50174.75;5113710;28;20642;-69
2022/10/27 01:29:21;;;;;;;4.10;3.97;;;;;;;-142.65;91.49;50168.78;5113690;28;20173;-69
2022/10/27 01:31:54;;;;;;;3.87;3.80;;;;;;;;;;5113904;28;20205;-69
2022/10/27 01:34:29;;;;;;;4.77;3.77;;;;;;;;;;5113904;28;20169;-69
2022/10/27 01:37:08;;;;;;;3.90;3.67;;;;;;;-142.65;91.31;50164.81;5113808;28;20189;-69
2022/10/27 01:39:49;;;;;;;10.77;3.23;;;;;;;-142.65;91.36;50168.78;5113906;28;20161;-68
2022/10/27 01:42:26;;;;;;;12.47;3.70;;;;;;;-142.65;91.17;50170.78;5113577;28;20205;-69
2022/10/27 01:44:53;;;;;;;4.60;3.90;;;;;;;;;;5113876;28;20200;-69
2022/10/27 01:47:21;;;;;;;5.30;3.93;;;;;;;-142.65;91.44;50170.78;5117669;28;20200;-69
2022/10/27 01:49:50;;;;;;;8.23;3.70;;;;;;;;;;5118154;28;20192;-68
2022/10/27 01:52:35;;;;;;;3.70;3.43;;;;;;;;;;5117522;28;20205;-68
2022/10/27 01:55:02;;;;;;;3.47;3.37;;;;;;;;;;5118134;28;20173;-68
2022/10/27 01:57:42;;;;;;;3.80;3.77;;;;;;;-142.65;91.58;50168.78;5117443;28;20666;-68
2022/10/27 02:00:09;;;;;;;4.57;4.37;;;;;;;-142.65;91.44;50170.78;5117444;28;20178;-68
2022/10/27 02:02:51;;;;;;;3.80;3.80;;;;;;;-142.65;91.63;50168.78;5117309;28;20695;-69
2022/10/27 02:05:21;;;;;;;7.67;3.60;;;;;;;;;;5098976;28;20288;-69
2022/10/27 02:07:48;;;;;;;3.47;3.33;;;;;;;-142.65;91.44;50174.75;5117521;28;20547;-68
2022/10/27 02:10:19;;;;;;;3.30;3.30;;;;;;;;;;5117235;28;20188;-68
2022/10/27 02:12:46;;;;;;;3.47;3.20;;;;;;;;;;5117374;28;20576;-68
2022/10/27 02:15:37;;;;;;;3.37;3.17;;;;;;;-142.65;91.54;50174.75;5117053;28;20186;-68
2022/10/27 02:18:18;;;;;;;3.93;3.70;;;;;;;;;;5117367;28;20178;-68
2022/10/27 02:20:49;;;;;;;4.17;4.07;;;;;;;-142.65;91.97;50162.81;5117479;28;20715;-69
2022/10/27 02:23:18;;;;;;;5.70;3.87;;;;;;;-142.65;92.04;50168.78;5117277;28;20188;-69
2022/10/27 02:26:00;;;;;;;3.67;3.47;;;;;;;;;;5116846;28;20213;-69
2022/10/27 02:28:33;;;;;;;3.57;3.47;;;;;;;-142.65;92.05;50170.78;5116887;28;20184;-68
2022/10/27 02:31:00;;;;;;;4.53;3.67;;;;;;;;;;5117040;28;20255;-69
2022/10/27 02:33:26;;;;;;;3.33;3.23;;;;;;;-142.65;92.13;50170.78;5117021;28;20200;-69
2022/10/27 02:35:54;;;;;;;2.90;2.90;;;;;;;-142.65;92.36;50172.78;5116709;28;20200;-68
2022/10/27 02:38:21;;;;;;;3.20;3.10;;;;;;;-142.65;92.54;50170.78;5117207;28;20189;-68
2022/10/27 02:40:48;;;;;;;5.03;3.57;;;;;;;-142.65;92.62;50174.75;5116567;28;20209;-69
2022/10/27 02:43:14;;;;;;;3.33;3.13;;;;;;;-142.65;92.74;50168.78;5117138;28;20189;-69
2022/10/27 02:45:41;;;;;;;3.43;3.07;;;;;;;-142.65;92.93;50168.78;5116479;28;20569;-68
2022/10/27 02:48:07;;;;;;;3.87;3.13;;;;;;;;;;5116477;28;20182;-68
2022/10/27 02:50:34;;;;;;;4.50;3.83;;;;;;;-142.65;93.16;50168.78;5116430;28;20189;-69
2022/10/27 02:53:00;;;;;;;3.13;2.87;;;;;;;;;;5116641;28;20238;-68
2022/10/27 02:55:26;;;;;;;3.23;3.23;;;;;;;-142.65;93.51;50174.75;5116379;28;20192;-68
2022/10/27 02:57:53;;;;;;;5.70;3.87;;;;;;;-142.65;93.65;50170.78;5115973;28;20181;-68
2022/10/27 03:00:19;;;;;;;3.60;3.30;;;;;;;-142.65;93.91;50172.78;5098035;28;20278;-68
2022/10/27 03:02:47;;;;;;;3.93;3.80;;;;;;;-142.65;93.90;50168.78;5116134;28;20326;-69
2022/10/27 03:05:13;;;;;;;3.77;3.67;;;;;;;-142.65;93.92;50168.78;5116335;28;20295;-69
2022/10/27 03:07:42;;;;;;;3.03;3.00;;;;;;;-142.65;94.01;50170.78;5116449;28;20201;-69
2022/10/27 03:10:09;;;;;;;3.43;3.30;;;;;;;-142.65;94.15;50164.81;5116839;28;20719;-69
2022/10/27 03:12:35;;;;;;;3.73;3.73;;;;;;;-142.65;94.18;50174.75;5115991;28;20213;-69
2022/10/27 03:15:02;;;;;;;8.33;7.47;;;;;;;-142.65;94.21;50170.78;5116195;28;20185;-69
2022/10/27 03:17:28;;;;;;;41.33;28.50;;;;;;;-142.65;94.36;50178.75;5116186;28;20192;-69
2022/10/27 03:19:54;;;;;;;13.17;12.03;;;;;;;-142.65;94.22;50178.75;5115890;28;20528;-68
2022/10/27 03:22:21;;;;;;;11.23;8.13;;;;;;;-142.65;94.40;50170.78;5115911;28;20254;-68
2022/10/27 03:24:47;;;;;;;5.20;5.00;;;;;;;;;;5115942;28;20201;-68
2022/10/27 03:27:13;;;;;;;4.23;3.93;;;;;;;-142.65;94.37;50174.75;5115994;28;20185;-68
2022/10/27 03:29:40;;;;;;;3.53;3.43;;;;;;;-142.65;94.52;50170.78;5115998;28;20181;-68
2022/10/27 03:32:06;;;;;;;3.43;3.23;;;;;;;-142.65;94.72;50170.78;5115740;28;20231;-69
2022/10/27 03:34:32;;;;;;;3.60;3.50;;;;;;;-142.65;94.85;50168.78;5115884;28;20181;-69
2022/10/27 03:36:59;;;;;;;3.13;3.13;;;;;;;-142.65;95.06;50182.72;5115552;28;20189;-69
2022/10/27 03:39:25;;;;;;;3.47;3.27;;;;;;;-142.65;95.02;50168.78;5115785;28;20634;-69
2022/10/27 03:41:51;;;;;;;3.30;3.03;;;;;;;-142.65;95.13;50170.78;5115363;28;20220;-69
2022/10/27 03:44:18;;;;;;;4.00;3.80;;;;;;;-142.65;95.34;50162.81;5115627;28;20212;-69
2022/10/27 03:46:44;;;;;;;3.30;3.20;;;;;;;-142.65;95.17;50162.81;5115347;28;20180;-69
2022/10/27 03:49:10;;;;;;;5.33;3.60;;;;;;;-142.65;95.56;50168.78;5115838;28;20196;-69
2022/10/27 03:51:36;;;;;;;4.17;4.03;;;;;;;-142.65;95.78;50170.78;5115152;28;20208;-69
2022/10/27 03:54:03;;;;;;;3.23;3.23;;;;;;;-142.65;95.72;50170.78;5115461;28;20189;-69
2022/10/27 03:56:29;;;;;;;3.33;3.30;;;;;;;-142.65;95.86;50172.78;5115133;28;20181;-68
2022/10/27 03:58:55;;;;;;;3.53;3.43;;;;;;;-142.65;95.99;50176.75;5115345;28;20193;-68
2022/10/27 04:01:22;;;;;;;4.07;3.77;;;;;;;;;;5115013;28;20208;-68
2022/10/27 04:03:49;;;;;;;3.20;3.20;;;;;;;-142.65;96.11;50174.75;5115003;28;20190;-68
2022/10/27 04:06:15;;;;;;;3.70;3.57;;;;;;;;;;5114863;28;20336;-68
2022/10/27 04:08:42;;;;;;;3.90;3.60;;;;;;;;;;5113960;28;20189;-68
2022/10/27 04:11:08;;;;;;;3.90;3.80;;;;;;;-142.65;96.40;50168.78;5114707;28;20205;-69
2022/10/27 04:13:34;;;;;;;5.27;4.97;;;;;;;-142.65;96.39;50164.81;5114714;28;20560;-68
2022/10/27 04:16:01;;;;;;;4.03;3.90;;;;;;;-142.65;96.35;50178.75;5114831;28;20560;-68
2022/10/27 04:18:28;;;;;;;3.93;3.83;;;;;;;-142.65;96.49;50172.78;5114901;28;20189;-68
2022/10/27 04:20:59;;;;;;;3.13;3.03;;;;;;;-142.65;96.50;50182.72;5114773;28;20216;-69
2022/10/27 04:23:25;;;;;;;4.60;3.43;;;;;;;-142.65;96.56;50176.75;5114932;28;20174;-69
2022/10/27 04:25:51;;;;;;;3.03;2.93;;;;;;;-142.65;96.94;50178.75;5114742;28;20209;-69
2022/10/27 04:28:18;;;;;;;4.60;3.83;;;;;;;-142.65;96.75;50168.78;5115035;28;20189;-69
2022/10/27 04:30:45;;;;;;;3.97;3.67;;;;;;;;;;5114910;28;20212;-69
2022/10/27 04:33:11;;;;;;;3.53;3.37;;;;;;;-142.65;96.95;50170.78;5114695;28;20196;-69
2022/10/27 04:35:38;;;;;;;3.50;3.40;;;;;;;-142.65;96.98;50174.75;5114678;28;20177;-69
2022/10/27 04:38:04;;;;;;;3.10;2.93;;;;;;;-142.65;96.97;50168.78;5114624;28;20266;-69
2022/10/27 04:40:30;;;;;;;3.27;3.27;;;;;;;-142.65;97.13;50172.78;5114514;28;20235;-69
2022/10/27 04:42:57;;;;;;;3.93;3.63;;;;;;;;;;5114787;28;20196;-69
2022/10/27 04:45:23;;;;;;;3.77;3.47;;;;;;;-142.65;96.98;50170.78;5114195;28;20576;-69
2022/10/27 04:47:49;;;;;;;3.43;3.20;;;;;;;-142.65;96.99;50174.75;5114202;28;20658;-69
2022/10/27 04:50:17;;;;;;;3.40;3.30;;;;;;;-142.65;97.00;50174.75;5114453;28;20189;-69
2022/10/27 04:52:56;;;;;;;3.90;3.57;;;;;;;;;;5114552;28;20220;-69
2022/10/27 04:55:23;;;;;;;4.80;3.43;;;;;;;-142.65;97.04;50168.78;5114102;28;20173;-69
2022/10/27 04:57:50;;;;;;;3.53;3.50;;;;;;;-142.65;96.69;50170.78;5113989;28;20193;-69
2022/10/27 05:00:16;;;;;;;3.57;3.47;;;;;;;-142.65;96.58;50170.78;5114005;28;20190;-69
2022/10/27 05:02:43;;;;;;;3.00;2.90;;;;;;;-142.65;96.58;50164.81;5114341;28;20262;-69
2022/10/27 05:05:09;;;;;;;3.57;3.47;;;;;;;-142.65;96.38;50176.75;5113885;28;20254;-69
2022/10/27 05:07:36;;;;;;;4.40;3.63;;;;;;;-142.65;96.46;50168.78;5113952;28;20304;-69
2022/10/27 05:10:02;;;;;;;4.30;4.13;;;;;;;-142.65;96.54;50180.75;5114129;28;20181;-69
2022/10/27 05:12:29;;;;;;;11.03;3.77;;;;;;;-142.65;96.48;50176.75;5113615;28;20219;-69
2022/10/27 05:14:55;;;;;;;4.07;3.90;;;;;;;-142.65;96.25;50170.78;5113716;28;20188;-69
2022/10/27 05:17:21;;;;;;;4.00;3.70;;;;;;;-142.65;96.47;50170.78;5113820;28;20190;-69
2022/10/27 05:19:52;;;;;;;4.00;3.70;;;;;;;;;;5113965;28;20170;-69
2022/10/27 05:22:19;;;;;;;5.10;3.33;;;;;;;-142.65;96.87;50170.78;5113658;28;20216;-69
2022/10/27 05:24:45;;;;;;;5.33;3.50;;;;;;;;;;5113884;28;20197;-69
2022/10/27 05:27:11;;;;;;;3.70;3.40;;;;;;;-142.65;97.02;50170.78;5113946;28;20169;-69
2022/10/27 05:29:38;;;;;;;3.63;3.43;;;;;;;-142.65;97.02;50172.78;5114228;28;20633;-69
2022/10/27 05:32:04;;;;;;;3.40;3.30;;;;;;;-142.65;97.21;50180.75;5113511;28;20212;-69
2022/10/27 05:34:30;;;;;;;8.03;4.40;;;;;;;-142.65;97.15;50170.78;5113566;28;20189;-69
2022/10/27 05:36:56;;;;;;;4.50;4.30;;;;;;;-142.65;97.52;50170.78;5113419;28;20207;-69
2022/10/27 05:39:23;;;;;;;4.40;4.00;;;;;;;;;;5113581;28;20616;-69
2022/10/27 05:41:49;;;;;;;3.30;3.20;;;;;;;-142.65;97.81;50172.78;5113385;28;20208;-69
2022/10/27 05:44:15;;;;;;;4.10;3.90;;;;;;;-142.65;97.96;50172.78;5114127;28;20537;-69
2022/10/27 05:46:42;;;;;;;5.17;3.83;;;;;;;-142.65;97.97;50168.78;5113385;28;20220;-69
2022/10/27 05:49:08;;;;;;;6.07;3.50;;;;;;;-142.65;98.01;50172.78;5113783;28;20170;-69
2022/10/27 05:51:34;;;;;;;5.47;3.37;;;;;;;;;;5113636;28;20205;-69
2022/10/27 05:54:01;;;;;;;7.83;4.17;;;;;;;;;;5113355;28;20555;-69
2022/10/27 05:56:27;;;;;;;4.83;4.33;;;;;;;-142.65;98.35;50164.81;5113330;28;20193;-69
2022/10/27 05:58:53;;;;;;;9.00;4.40;;;;;;;-142.65;98.63;50162.81;5113500;28;20537;-69
2022/10/27 06:01:20;;;;;;;3.67;3.43;;;;;;;;;;5113454;28;20209;-69
2022/10/27 06:03:46;;;;;;;14.10;5.07;;;;;;;-142.65;99.27;50170.78;5113340;28;20196;-69
2022/10/27 06:06:13;;;;;;;4.00;3.90;;;;;;;-142.65;98.89;50174.75;5113232;28;20248;-69
2022/10/27 06:08:39;;;;;;;9.37;4.27;;;;;;;-142.65;99.29;50174.75;5113178;28;20678;-69
2022/10/27 06:11:05;;;;;;;4.17;4.03;;;;;;;-142.65;99.28;50174.75;5113205;28;20220;-69
2022/10/27 06:13:31;;;;;;;4.07;3.90;;;;;;;;;;5113183;28;20210;-69
2022/10/27 06:15:58;;;;;;;5.93;3.63;;;;;;;;;;5113550;28;20173;-69
2022/10/27 06:18:24;;;;;;;3.80;3.50;;;;;;;-142.65;99.58;50170.78;5113173;28;20192;-69
2022/10/27 06:20:50;;;;;;;3.73;3.53;;;;;;;-142.65;99.71;50174.75;5113378;28;20217;-69
2022/10/27 06:23:17;;;;;;;5.63;3.43;;;;;;;-142.65;100.00;50174.75;5113087;28;20190;-69
2022/10/27 06:25:43;;;;;;;5.60;4.00;;;;;;;-142.65;100.00;50170.78;5112992;28;20208;-69
2022/10/27 06:28:09;;;;;;;5.80;3.53;;;;;;;;;;5113341;28;20192;-69
2022/10/27 06:30:36;;;;;;;4.57;3.70;;;;;;;;;;5113026;28;20189;-69
2022/10/27 06:33:02;;;;;;;3.70;3.50;;;;;;;-142.65;100.00;50170.78;5115141;28;20188;-69
2022/10/27 06:35:28;;;;;;;3.57;3.47;;;;;;;-142.65;100.00;50178.75;5116737;28;20185;-69
2022/10/27 06:37:55;;;;;;;7.07;3.60;;;;;;;-142.65;100.00;50170.78;5116717;28;20192;-69
2022/10/27 06:40:21;;;;;;;4.67;4.47;;;;;;;-142.65;100.00;50168.78;5116691;28;20279;-69
2022/10/27 06:42:52;;;;;;;4.77;3.97;;;;;;;-142.65;100.00;50164.81;5116821;28;20554;-69
2022/10/27 06:45:32;;;;;;;4.33;3.80;;;;;;;-142.65;100.00;50174.75;5117045;28;20218;-69
2022/10/27 06:48:00;;;;;;;4.70;4.40;;;;;;;;;;5116389;28;20193;-68
2022/10/27 06:50:27;;;;;;;4.93;4.37;;;;;;;;;;5116829;28;20181;-69
2022/10/27 06:52:53;;;;;;;3.60;3.50;;;;;;;;;;5116395;28;20627;-69
2022/10/27 06:55:20;;;;;;;4.70;3.40;;;;;;;-142.65;100.00;50170.78;5116409;28;20187;-69
2022/10/27 06:57:46;;;;;;;3.80;3.60;;;;;;;-142.65;100.00;50174.75;5116289;28;20188;-69
2022/10/27 07:00:13;;;;;;;13.93;3.33;;;;;;;-142.65;100.00;50174.75;5116538;28;20200;-69
2022/10/27 07:02:39;;;;;;;4.23;4.10;;;;;;;-142.65;100.00;50178.75;5116167;28;20213;-69
2022/10/27 07:05:06;;;;;;;8.63;3.83;;;;;;;;;;5116465;28;20194;-69
2022/10/27 07:07:33;;;;;;;6.60;4.00;;;;;;;-142.65;100.00;50174.75;5116617;28;20209;-69
2022/10/27 07:09:59;;;;;;;4.10;3.80;;;;;;;-142.65;100.00;50178.75;5116068;28;20181;-69
2022/10/27 07:12:25;;;;;;;3.80;3.70;;;;;;;;;;5115940;28;20212;-69
2022/10/27 07:14:52;;;;;;;10.33;4.00;;;;;;;-142.65;100.00;50164.81;5116072;28;20191;-69
2022/10/27 07:17:19;;;;;;;5.77;5.03;;;;;;;-142.65;100.00;50178.75;5116474;28;20254;-69
2022/10/27 07:19:46;;;;;;;4.30;4.20;;;;;;;-142.65;100.00;50172.78;5116188;28;20235;-69
2022/10/27 07:22:12;;;;;;;8.27;4.93;;;;;;;-142.65;99.98;50174.75;5116058;28;20216;-69
2022/10/27 07:24:39;;;;;;;5.77;4.20;;;;;;;-142.65;100.00;50172.78;5115755;28;20190;-69
2022/10/27 07:27:05;;;;;;;5.23;4.67;;;;;;;-142.65;99.90;50168.78;5115703;28;20262;-69
2022/10/27 07:29:36;;;;;;;4.80;4.50;;;;;;;-142.65;99.98;50178.75;5115792;28;20174;-69
2022/10/27 07:32:02;;;;;;;4.10;3.90;;;;;;;-142.65;99.82;50170.78;5116438;28;20626;-69
2022/10/27 07:34:29;;;;;;;7.30;4.13;;;;;;;;;;5115582;28;20196;-69
2022/10/27 07:36:55;;;;;;;6.97;4.90;;;;;;;-142.65;99.49;50172.78;5115504;28;20197;-68
2022/10/27 07:39:21;;;;;;;6.13;4.37;;;;;;;;;;5115524;28;20189;-68
2022/10/27 07:41:47;;;;;;;4.63;4.47;;;;;;;-142.65;98.99;50164.81;5115378;28;20213;-69
2022/10/27 07:44:14;;;;;;;8.23;4.53;;;;;;;-142.65;98.62;50172.78;5115409;28;20185;-69
2022/10/27 07:46:40;;;;;;;10.90;4.17;;;;;;;-142.65;98.23;50172.78;5115596;28;20197;-69
2022/10/27 07:49:06;;;;;;;5.80;5.30;;;;;;;;;;5115243;28;20193;-69
2022/10/27 07:51:33;;;;;;;4.40;4.10;;;;;;;-142.65;97.27;50164.81;5115137;28;20209;-69
2022/10/27 07:53:59;;;;;;;4.33;4.23;;;;;;;;;;5115165;28;20189;-69
2022/10/27 07:56:25;;;;;;;4.67;4.47;;;;;;;;;;5115113;28;20185;-69
2022/10/27 07:58:51;;;;;;;6.00;4.90;;;;;;;;;;5115128;28;20189;-69
2022/10/27 08:01:18;;;;;;;4.73;4.47;;;;;;;-142.65;93.63;50170.78;5115005;28;20220;-69
2022/10/27 08:03:45;;;;;;;5.60;4.17;;;;;;;;;;5115270;28;20193;-69
2022/10/27 08:06:16;;;;;;;6.50;4.23;;;;;;;;;;5115200;28;20204;-69
2022/10/27 08:08:42;;;;;;;5.47;5.00;;;;;;;-142.65;92.92;50164.81;5115436;28;20193;-69
2022/10/27 08:11:08;;;;;;;4.60;4.40;;;;;;;;;;5114656;28;20213;-69
2022/10/27 08:13:35;;;;;;;3.87;3.77;;;;;;;;;;5115150;28;20197;-69
2022/10/27 08:16:01;;;;;;;4.83;4.27;;;;;;;-142.65;91.75;50174.75;5115027;28;20185;-69
2022/10/27 08:18:27;;;;;;;4.90;4.50;;;;;;;-142.65;91.38;50168.78;5115261;28;20647;-69
2022/10/27 08:20:54;;;;;;;11.33;4.50;;;;;;;-142.65;91.32;50164.81;5114606;28;20555;-69
2022/10/27 08:23:23;;;;;;;4.97;3.80;;;;;;;-142.65;90.36;50168.78;5114623;28;20197;-69
2022/10/27 08:25:50;;;;;;;6.20;3.80;;;;;;;-142.65;90.09;50170.78;5114453;28;20216;-69
2022/10/27 08:28:16;;;;;;;4.13;3.80;;;;;;;;;;5115069;28;20188;-69
2022/10/27 08:30:43;;;;;;;4.03;3.73;;;;;;;-142.65;89.34;50168.78;5114697;28;20646;-69
2022/10/27 08:33:18;;;;;;;8.83;4.40;;;;;;;-142.65;88.56;50170.78;5114774;28;20220;-69
2022/10/27 08:35:44;;;;;;;12.03;4.40;;;;;;;-142.65;87.93;50162.81;5114431;28;20190;-69
2022/10/27 08:38:13;;;;;;;4.07;3.73;;;;;;;-142.65;87.70;50164.81;5114667;28;20204;-69
2022/10/27 08:41:02;;;;;;;3.57;3.37;;;;;;;-142.65;86.99;50170.78;5114757;28;20189;-69
2022/10/27 08:43:32;;;;;;;5.80;3.17;;;;;;;-142.65;86.82;50162.81;5114332;28;20192;-69
2022/10/27 08:46:05;;;;;;;4.10;3.30;;;;;;;-142.65;86.18;50168.78;5114165;28;20208;-69
2022/10/27 08:48:36;;;;;;;5.50;3.90;;;;;;;-142.65;86.25;50170.78;5114775;28;20182;-69
2022/10/27 08:51:03;;;;;;;2.63;2.53;;;;;;;-142.65;84.17;50164.81;5114378;28;20205;-69
2022/10/27 08:53:35;;;;;;;3.80;2.60;;;;;;;-142.65;83.39;50160.81;5114666;28;20185;-69
2022/10/27 08:56:09;;;;;;;2.33;2.27;;;;;;;;;;5113547;28;20535;-69
2022/10/27 08:58:44;;;;;;;1.87;1.83;;;;;;;-142.65;78.63;50164.81;5114070;28;20176;-69
2022/10/27 09:01:20;;;;;;;7.10;2.13;;;;;;;-142.65;78.28;50164.81;5113862;28;20757;-70
2022/10/27 09:03:53;;;;;;;2.07;1.97;;;;;;;;;;5114305;28;20177;-69
2022/10/27 09:06:26;;;;;;;2.27;1.97;;;;;;;-142.65;77.34;50164.81;5114442;28;20221;-69
2022/10/27 09:09:01;;;;;;;1.97;1.97;;;;;;;;;;5113932;28;20177;-69
2022/10/27 09:11:48;;;;;;;2.43;2.33;;;;;;;-142.65;75.47;50162.81;5114402;28;20208;-69
2022/10/27 09:14:38;;;;;;;2.47;2.33;;;;;;;;;;5114469;28;20249;-69
2022/10/27 09:17:12;;;;;;;4.00;2.30;;;;;;;-142.65;73.21;50162.81;5070585;28;20205;-69
2022/10/27 09:19:45;;;;;;;2.13;2.00;;;;;;;-142.65;70.24;50162.81;5113709;28;20189;-69
2022/10/27 09:22:16;;;;;;;3.13;1.73;;;;;;;-142.65;71.68;50162.81;5113970;28;20212;-70
2022/10/27 09:24:45;;;;;;;7.73;2.50;;;;;;;-142.65;70.34;50164.81;5114031;28;20631;-69
2022/10/27 09:27:14;;;;;;;1.97;1.97;;;;;;;-142.65;70.79;50162.81;5113818;28;20209;-69
2022/10/27 09:29:40;;;;;;;2.10;2.00;;;;;;;-142.65;69.68;50162.81;5113616;28;20181;-69
2022/10/27 09:32:14;;;;;;;3.53;2.30;;;;;;;;;;5113990;28;20205;-70
2022/10/27 09:34:44;;;;;;;4.40;2.10;;;;;;;;;;5113571;28;20544;-70
2022/10/27 09:37:16;;;;;;;2.53;1.87;;;;;;;-142.65;67.15;50162.81;5113779;28;20181;-69
2022/10/27 09:39:48;;;;;;;1.73;1.43;;;;;;;-142.65;66.94;50164.81;5113910;28;20165;-69
2022/10/27 09:42:15;;;;;;;4.53;1.67;;;;;;;-142.65;66.05;50170.78;5113545;28;20212;-69
2022/10/27 09:44:44;;;;;;;6.53;1.93;;;;;;;;;;5113380;28;20187;-69
2022/10/27 09:47:10;;;;;;;7.67;2.20;;;;;;;-142.65;66.83;50160.81;5113367;28;20208;-69
2022/10/27 09:49:38;;;;;;;4.37;2.07;;;;;;;;;;5114012;28;20260;-70
2022/10/27 09:52:11;;;;;;;1.97;1.87;;;;;;;;;;5113373;28;20236;-70
2022/10/27 09:54:41;;;;;;;1.70;1.70;;;;;;;-142.65;66.49;50164.81;5113443;28;20204;-69
2022/10/27 09:57:11;;;;;;;2.87;1.90;;;;;;;-142.65;64.99;50164.81;5113682;28;20273;-69
2022/10/27 09:59:39;;;;;;;2.00;2.00;;;;;;;;;;5113969;28;20182;-69
2022/10/27 10:02:22;;;;;;;10.90;1.67;;;;;;;-142.65;64.80;50160.81;5113880;28;20216;-69
2022/10/27 10:04:49;;;;;;;2.10;1.53;;;;;;;-142.65;64.24;50164.81;5113715;28;20173;-69
2022/10/27 10:07:31;;;;;;;1.67;1.67;;;;;;;-142.65;64.64;50164.81;5116332;28;20678;-69
2022/10/27 10:10:19;;;;;;;1.70;1.70;;;;;;;-142.65;63.04;50164.81;5117265;28;20177;-69
2022/10/27 10:12:45;;;;;;;1.80;1.70;;;;;;;-142.65;64.50;50160.81;5117412;28;20215;-69
2022/10/27 10:15:12;;;;;;;2.50;2.00;;;;;;;-142.65;62.52;50162.81;5117070;28;20196;-69
2022/10/27 10:17:49;;;;;;;3.10;1.40;;;;;;;-142.65;63.59;50162.81;5117401;28;20682;-69
2022/10/27 10:20:39;;;;;;;3.53;2.13;;;;;;;-142.65;63.13;50164.81;5117139;28;20180;-69
2022/10/27 10:23:24;;;;;;;1.50;1.40;;;;;;;-142.65;62.62;50162.81;5117873;28;20185;-69
2022/10/27 10:25:52;;;;;;;2.10;1.30;;;;;;;-142.65;62.72;50101.06;5099103;28;20629;-69
2022/10/27 10:28:35;;;;;;;1.80;1.70;;;;;;;-142.65;61.43;50162.81;5117274;28;20544;-69
2022/10/27 10:31:05;;;;;;;2.93;2.10;;;;;;;-142.65;62.09;50164.81;5116915;28;20213;-70
2022/10/27 10:33:35;;;;;;;3.30;2.03;;;;;;;-142.65;61.23;50164.81;5116869;28;20170;-70
2022/10/27 10:36:15;;;;;;;1.97;1.97;;;;;;;-142.65;61.51;50162.81;5117054;28;20199;-69
2022/10/27 10:38:48;;;;;;;3.03;2.93;;;;;;;-142.65;61.40;50164.81;5116713;28;20177;-69
2022/10/27 10:41:19;;;;;;;5.17;2.40;;;;;;;-142.65;61.55;50164.81;5116642;28;20209;-70
2022/10/27 10:43:45;;;;;;;12.47;3.30;;;;;;;-142.65;62.09;50164.81;5116931;28;20192;-70
2022/10/27 10:46:22;;;;;;;6.23;4.73;;;;;;;;;;5116727;28;20545;-70
2022/10/27 10:48:55;;;;;;;2.33;2.33;;;;;;;-142.65;61.54;50164.81;5116845;28;20195;-69
2022/10/27 10:51:26;;;;;;;2.30;1.97;;;;;;;;;;5116993;28;20205;-70
2022/10/27 10:53:59;;;;;;;6.60;2.30;;;;;;;-142.65;62.99;50164.81;5116280;28;20656;-70
2022/10/27 10:56:29;;;;;;;3.03;2.83;;;;;;;;;;5116813;28;20169;-69
2022/10/27 10:59:10;;;;;;;3.42;3.20;;;;;;;-142.65;61.21;50162.81;5116604;28;20177;-69
2022/10/27 11:01:39;;;;;;;2.10;2.00;;;;;;;-142.65;61.93;50164.81;5116486;28;20205;-69
2022/10/27 11:04:09;;;;;;;6.50;2.20;;;;;;;-142.65;60.90;50170.78;5117007;28;20187;-69
2022/10/27 11:06:36;;;;;;;2.57;1.80;;;;;;;-142.65;61.97;50168.78;5115939;28;20300;-70
2022/10/27 11:09:03;;;;;;;1.53;1.47;;;;;;;-142.65;62.63;50164.81;5116688;28;20180;-69
2022/10/27 11:11:44;;;;;;;2.27;2.17;;;;;;;-142.65;61.20;50162.81;5116013;28;20553;-70
2022/10/27 11:14:14;;;;;;;3.97;2.00;;;;;;;-142.65;61.38;50168.78;5116197;28;20197;-70
2022/10/27 11:16:48;;;;;;;2.23;2.03;;;;;;;;;;5115961;28;20176;-69
2022/10/27 11:19:17;;;;;;;3.70;2.27;;;;;;;-142.65;61.02;50162.81;5097094;28;20560;-70
2022/10/27 11:21:53;;;;;;;2.27;2.27;;;;;;;;;;5116097;28;20215;-70
2022/10/27 11:24:26;;;;;;;2.20;2.20;;;;;;;-142.65;61.98;50160.81;5116109;28;20180;-70
2022/10/27 11:27:00;;;;;;;3.80;3.20;;;;;;;-142.65;61.18;50162.81;5116049;28;20216;-69
2022/10/27 11:29:44;;;;;;;2.77;2.67;;;;;;;-142.65;61.26;50164.81;5116081;28;20616;-70
2022/10/27 11:32:32;;;;;;;5.73;2.47;;;;;;;-142.65;60.96;50162.81;5115759;28;20197;-70
2022/10/27 11:35:17;;;;;;;1.90;1.90;;;;;;;;;;5116122;28;20185;-69
2022/10/27 11:38:14;;;;;;;3.57;3.33;;;;;;;-142.65;60.94;50162.81;5116095;28;20512;-69
2022/10/27 11:41:02;;;;;;;5.47;2.22;;;;;;;-142.65;60.15;50162.81;5115301;28;20213;-70
2022/10/27 11:43:35;;;;;;;3.08;3.08;;;;;;;;;;5115361;28;20174;-70
2022/10/27 11:46:09;;;;;;;2.00;2.00;;;;;;;;;;5115561;28;20169;-70
2022/10/27 11:48:51;;;;;;;2.87;2.77;;;;;;;-142.65;59.70;50164.81;5115585;28;20604;-70
2022/10/27 11:51:34;;;;;;;1.90;1.80;;;;;;;-142.65;60.74;50160.81;5115441;28;20638;-70
2022/10/27 11:54:01;;;;;;;3.58;2.60;;;;;;;-142.65;59.11;50162.81;5115439;28;20180;-70
2022/10/27 11:56:43;;;;;;;10.52;2.08;;;;;;;-142.65;58.89;50164.81;5115719;28;20170;-70
2022/10/27 11:59:31;;;;;;;4.43;2.20;;;;;;;-142.65;59.25;50164.81;5115402;28;20181;-70
2022/10/27 12:02:33;;;;;;;10.75;2.20;;;;;;;-142.65;60.05;50101.06;5115580;28;20216;-70
2022/10/27 12:05:11;;;;;;;6.20;2.67;;;;;;;-142.65;59.64;50164.81;5114718;28;20208;-69
2022/10/27 12:07:46;;;;;;;7.97;2.40;;;;;;;-142.65;59.37;50162.81;5115221;28;20203;-69
2022/10/27 12:10:22;;;;;;;2.17;2.05;;;;;;;-142.65;59.00;50160.81;5115520;28;20259;-69
2022/10/27 12:13:01;;;;;;;2.30;2.03;;;;;;;-142.65;59.39;50162.81;5115057;28;20227;-70
2022/10/27 12:15:39;;;;;;;2.05;1.90;;;;;;;-142.65;58.65;50101.06;5115141;28;20530;-70